createdAt,value
2024-02-03T00:01:05.786Z,6.10
2024-02-03T00:03:35.394Z,6.10
2024-02-03T00:06:02.785Z,6.10
2024-02-03T00:08:29.943Z,6.10
2024-02-03T00:10:59.422Z,6.20
2024-02-03T00:13:26.674Z,6.10
2024-02-03T00:15:53.949Z,6.10
2024-02-03T00:18:23.603Z,6.00
2024-02-03T00:20:50.855Z,6.00
2024-02-03T00:23:22.495Z,5.90
2024-02-03T00:25:49.560Z,5.90
2024-02-03T00:28:16.657Z,5.80
2024-02-03T00:30:46.124Z,5.80
2024-02-03T00:33:15.989Z,5.80
2024-02-03T00:35:43.268Z,5.70
2024-02-03T00:38:10.254Z,5.60
2024-02-03T00:40:37.317Z,5.60
2024-02-03T00:43:04.442Z,5.50
2024-02-03T00:45:33.532Z,5.40
2024-02-03T00:48:05.462Z,5.40
2024-02-03T00:50:32.664Z,5.30
2024-02-03T00:52:59.669Z,5.30
2024-02-03T00:55:26.578Z,5.20
2024-02-03T00:57:56.089Z,5.10
2024-02-03T01:00:25.875Z,5.00
2024-02-03T01:02:55.059Z,5.00
2024-02-03T01:05:22.887Z,4.90
2024-02-03T01:07:49.958Z,4.90
2024-02-03T01:10:17.090Z,4.80
2024-02-03T01:12:44.299Z,4.80
2024-02-03T01:15:13.861Z,4.80
2024-02-03T01:17:41.029Z,4.80
2024-02-03T01:20:09.143Z,4.80
2024-02-03T01:22:36.203Z,4.70
2024-02-03T01:25:03.276Z,4.70
2024-02-03T01:27:32.573Z,4.60
2024-02-03T01:29:59.559Z,4.60
2024-02-03T01:32:26.529Z,4.50
2024-02-03T01:34:55.907Z,4.50
2024-02-03T01:37:26.998Z,4.50
2024-02-03T01:39:56.361Z,4.50
2024-02-03T01:42:23.707Z,4.50
2024-02-03T01:44:50.768Z,4.50
2024-02-03T01:47:17.949Z,4.60
2024-02-03T01:49:49.915Z,4.60
2024-02-03T01:52:17.350Z,4.60
2024-02-03T01:54:47.978Z,4.50
2024-02-03T01:57:16.861Z,4.60
2024-02-03T01:59:44.593Z,4.60
2024-02-03T02:02:11.900Z,4.60
2024-02-03T02:04:38.839Z,4.60
2024-02-03T02:07:08.300Z,4.60
2024-02-03T02:09:35.364Z,4.50
2024-02-03T02:12:02.519Z,4.50
2024-02-03T02:14:29.779Z,4.40
2024-02-03T02:16:59.008Z,4.40
2024-02-03T02:19:26.452Z,4.40
2024-02-03T02:21:53.659Z,4.40
2024-02-03T02:24:20.834Z,4.30
2024-02-03T02:26:50.982Z,4.30
2024-02-03T02:29:17.994Z,4.30
2024-02-03T02:31:45.081Z,4.30
2024-02-03T02:34:14.763Z,4.30
2024-02-03T02:36:41.960Z,4.30
2024-02-03T02:39:10.580Z,4.20
2024-02-03T02:41:38.081Z,4.20
2024-02-03T02:44:05.178Z,4.20
2024-02-03T02:46:32.311Z,4.20
2024-02-03T02:48:59.445Z,4.30
2024-02-03T02:51:26.585Z,4.30
2024-02-03T02:53:55.699Z,4.30
2024-02-03T02:56:25.628Z,4.30
2024-02-03T02:58:54.403Z,4.30
2024-02-03T03:01:21.396Z,4.30
2024-02-03T03:03:48.451Z,4.20
2024-02-03T03:06:15.529Z,4.20
2024-02-03T03:08:42.848Z,4.20
2024-02-03T03:11:13.861Z,4.20
2024-02-03T03:13:41.556Z,4.20
2024-02-03T03:16:12.593Z,4.10
2024-02-03T03:18:40.345Z,4.10
2024-02-03T03:21:13.659Z,4.10
2024-02-03T03:23:41.900Z,4.10
2024-02-03T03:26:08.843Z,4.10
2024-02-03T03:28:35.664Z,4.00
2024-02-03T03:31:02.527Z,4.00
2024-02-03T03:33:30.359Z,4.00
2024-02-03T03:35:57.309Z,4.00
2024-02-03T03:38:24.779Z,3.90
2024-02-03T03:40:51.697Z,3.90
2024-02-03T03:43:23.566Z,3.90
2024-02-03T03:45:51.166Z,3.90
2024-02-03T03:48:21.087Z,3.80
2024-02-03T03:50:49.555Z,3.80
2024-02-03T03:53:16.789Z,3.80
2024-02-03T03:55:43.647Z,3.70
2024-02-03T03:58:10.561Z,3.70
2024-02-03T04:00:37.644Z,3.70
2024-02-03T04:03:07.418Z,3.70
2024-02-03T04:05:34.449Z,3.70
2024-02-03T04:08:01.445Z,3.70
2024-02-03T04:10:28.407Z,3.70
2024-02-03T04:12:55.437Z,3.70
2024-02-03T04:15:22.486Z,3.70
2024-02-03T04:17:51.192Z,3.60
2024-02-03T04:20:18.427Z,3.70
2024-02-03T04:22:45.630Z,3.70
2024-02-03T04:25:12.493Z,3.70
2024-02-03T04:27:39.355Z,3.70
2024-02-03T04:30:21.835Z,3.70
2024-02-03T04:32:51.860Z,3.60
2024-02-03T04:35:18.790Z,3.60
2024-02-03T04:37:45.742Z,3.60
2024-02-03T04:40:15.095Z,3.60
2024-02-03T04:42:44.331Z,3.60
2024-02-03T04:45:13.931Z,3.60
2024-02-03T04:47:40.932Z,3.60
2024-02-03T04:50:10.823Z,3.50
2024-02-03T04:52:37.914Z,3.50
2024-02-03T04:55:05.168Z,3.40
2024-02-03T04:57:32.111Z,3.40
2024-02-03T04:59:59.141Z,3.40
2024-02-03T05:02:28.380Z,3.30
2024-02-03T05:05:00.816Z,3.30
2024-02-03T05:07:32.981Z,3.20
2024-02-03T05:10:02.688Z,3.20
2024-02-03T05:12:30.297Z,3.20
2024-02-03T05:15:01.974Z,3.10
2024-02-03T05:17:33.084Z,3.10
2024-02-03T05:20:00.147Z,3.10
2024-02-03T05:22:27.390Z,3.10
2024-02-03T05:24:56.834Z,3.10
2024-02-03T05:27:23.878Z,3.10
2024-02-03T05:29:50.980Z,3.00
2024-02-03T05:32:20.169Z,3.00
2024-02-03T05:34:49.727Z,3.00
2024-02-03T05:37:16.976Z,3.00
2024-02-03T05:39:45.706Z,3.00
2024-02-03T05:42:14.923Z,3.00
2024-02-03T05:44:41.950Z,2.90
2024-02-03T05:47:13.364Z,2.90
2024-02-03T05:49:40.870Z,3.00
2024-02-03T05:52:07.878Z,3.00
2024-02-03T05:54:34.797Z,3.00
2024-02-03T05:57:03.953Z,2.90
2024-02-03T05:59:36.204Z,2.90
2024-02-03T06:02:11.203Z,2.90
2024-02-03T06:04:40.432Z,2.90
2024-02-03T06:07:07.766Z,2.80
2024-02-03T06:09:35.032Z,2.80
2024-02-03T06:12:02.199Z,2.80
2024-02-03T06:14:31.941Z,2.80
2024-02-03T06:16:59.937Z,2.70
2024-02-03T06:19:26.945Z,2.70
2024-02-03T06:21:56.150Z,2.70
2024-02-03T06:24:23.300Z,2.70
2024-02-03T06:26:50.230Z,2.70
2024-02-03T06:29:17.232Z,2.70
2024-02-03T06:31:44.454Z,2.70
2024-02-03T06:34:11.570Z,2.80
2024-02-03T06:36:41.855Z,2.70
2024-02-03T06:39:09.736Z,2.70
2024-02-03T06:41:36.957Z,2.70
2024-02-03T06:44:03.959Z,2.60
2024-02-03T06:46:33.137Z,2.60
2024-02-03T06:49:00.102Z,2.60
2024-02-03T06:51:27.059Z,2.60
2024-02-03T06:53:54.137Z,2.60
2024-02-03T06:56:21.102Z,2.60
2024-02-03T06:58:48.694Z,2.60
2024-02-03T07:01:15.847Z,2.60
2024-02-03T07:03:43.019Z,2.60
2024-02-03T07:06:10.129Z,2.60
2024-02-03T07:08:37.130Z,2.60
2024-02-03T07:11:04.213Z,2.60
2024-02-03T07:13:34.112Z,2.70
2024-02-03T07:16:04.784Z,2.70
2024-02-03T07:18:32.104Z,2.70
2024-02-03T07:20:59.046Z,2.70
2024-02-03T07:23:26.036Z,2.70
2024-02-03T07:25:52.982Z,2.80
2024-02-03T07:28:22.441Z,2.80
2024-02-03T07:30:51.882Z,2.90
2024-02-03T07:33:19.059Z,2.90
2024-02-03T07:35:46.472Z,2.90
2024-02-03T07:38:13.441Z,3.00
2024-02-03T07:40:46.001Z,3.00
2024-02-03T07:43:12.895Z,3.10
2024-02-03T07:45:39.984Z,3.10
2024-02-03T07:48:07.223Z,3.20
2024-02-03T07:50:34.136Z,3.30
2024-02-03T07:53:03.597Z,3.30
2024-02-03T07:55:32.917Z,3.30
2024-02-03T07:58:02.046Z,3.40
2024-02-03T08:00:29.321Z,3.50
2024-02-03T08:02:56.322Z,3.60
2024-02-03T08:05:23.907Z,3.70
2024-02-03T08:07:53.508Z,3.80
2024-02-03T08:10:20.723Z,3.90
2024-02-03T08:12:47.758Z,4.00
2024-02-03T08:15:15.242Z,4.10
2024-02-03T08:17:43.175Z,4.20
2024-02-03T08:20:11.077Z,4.30
2024-02-03T08:22:38.100Z,4.30
2024-02-03T08:25:08.973Z,4.40
2024-02-03T08:27:38.389Z,4.50
2024-02-03T08:30:09.144Z,4.60
2024-02-03T08:32:36.067Z,4.70
2024-02-03T08:37:32.749Z,4.90
2024-02-03T08:39:59.679Z,5.00
2024-02-03T08:42:29.249Z,5.10
2024-02-03T08:44:58.329Z,5.20
2024-02-03T08:47:25.264Z,5.40
2024-02-03T08:49:53.091Z,5.70
2024-02-03T08:52:20.504Z,5.90
2024-02-03T08:54:47.305Z,6.00
2024-02-03T08:57:16.581Z,6.10
2024-02-03T08:59:43.531Z,6.20
2024-02-03T09:02:12.537Z,6.30
2024-02-03T09:04:39.484Z,6.40
2024-02-03T09:07:06.484Z,6.40
2024-02-03T09:09:35.642Z,6.50
2024-02-03T09:12:03.092Z,6.50
2024-02-03T09:14:32.240Z,6.60
2024-02-03T09:17:01.389Z,6.60
2024-02-03T09:19:30.649Z,6.70
2024-02-03T09:22:00.127Z,6.80
2024-02-03T09:24:29.785Z,7.00
2024-02-03T09:26:56.867Z,7.20
2024-02-03T09:29:26.096Z,7.40
2024-02-03T09:31:55.433Z,7.80
2024-02-03T09:34:27.203Z,8.30
2024-02-03T09:39:24.409Z,9.10
2024-02-03T09:41:57.204Z,9.30
2024-02-03T09:44:24.251Z,9.40
2024-02-03T09:46:51.616Z,9.60
2024-02-03T09:49:20.970Z,9.70
2024-02-03T09:51:51.312Z,9.90
2024-02-03T09:54:19.164Z,10.00
2024-02-03T09:56:47.695Z,10.10
2024-02-03T09:59:15.868Z,10.20
2024-02-03T10:01:47.284Z,10.20
2024-02-03T10:04:17.154Z,10.40
2024-02-03T10:06:45.740Z,10.50
2024-02-03T10:09:24.948Z,10.60
2024-02-03T10:11:52.542Z,10.70
2024-02-03T10:14:19.789Z,10.70
2024-02-03T10:16:50.661Z,10.70
2024-02-03T10:19:18.893Z,10.70
2024-02-03T10:21:47.274Z,11.00
2024-02-03T10:24:22.690Z,11.20
2024-02-03T10:26:59.481Z,11.40
2024-02-03T10:29:26.419Z,11.60
2024-02-03T10:31:53.308Z,11.50
2024-02-03T10:34:21.847Z,11.50
2024-02-03T10:36:52.161Z,11.60
2024-02-03T10:39:21.982Z,11.70
2024-02-03T10:41:53.216Z,11.90
2024-02-03T10:44:28.331Z,12.10
2024-02-03T10:47:01.505Z,12.10
2024-02-03T10:49:34.941Z,12.00
2024-02-03T10:52:05.845Z,11.70
2024-02-03T10:54:35.556Z,11.20
2024-02-03T10:57:05.070Z,10.90
2024-02-03T10:59:32.879Z,10.80
2024-02-03T11:02:15.184Z,10.80
2024-02-03T11:04:42.160Z,10.80
2024-02-03T11:07:09.366Z,10.80
2024-02-03T11:09:41.407Z,10.90
2024-02-03T11:12:13.302Z,11.00
2024-02-03T11:14:43.971Z,11.00
2024-02-03T11:17:14.544Z,11.00
2024-02-03T11:19:44.755Z,11.20
2024-02-03T11:22:15.855Z,11.40
2024-02-03T11:24:45.063Z,11.30
2024-02-03T11:27:12.084Z,11.40
2024-02-03T11:29:41.503Z,11.50
2024-02-03T11:32:15.484Z,11.60
2024-02-03T11:34:43.300Z,11.50
2024-02-03T11:37:16.148Z,11.40
2024-02-03T11:39:47.869Z,11.20
2024-02-03T11:42:16.995Z,11.20
2024-02-03T11:44:58.097Z,11.10
2024-02-03T11:47:25.328Z,11.10
2024-02-03T11:49:53.431Z,11.10
2024-02-03T11:52:24.520Z,11.00
2024-02-03T11:54:52.962Z,11.10
2024-02-03T11:57:21.053Z,11.10
2024-02-03T11:59:48.146Z,11.10
2024-02-03T12:02:18.708Z,11.20
2024-02-03T12:04:45.857Z,11.20
2024-02-03T12:07:12.959Z,11.20
2024-02-03T12:09:42.449Z,11.20
2024-02-03T12:12:10.182Z,11.20
2024-02-03T12:14:39.562Z,11.10
2024-02-03T12:17:11.288Z,11.00
2024-02-03T12:19:39.892Z,11.00
2024-02-03T12:22:07.121Z,11.00
2024-02-03T12:24:39.093Z,11.10
2024-02-03T12:27:10.764Z,11.10
2024-02-03T12:29:38.572Z,11.00
2024-02-03T12:32:08.465Z,11.10
2024-02-03T12:34:35.450Z,11.10
2024-02-03T12:37:02.613Z,11.20
2024-02-03T12:39:32.119Z,11.20
2024-02-03T12:41:59.174Z,11.20
2024-02-03T12:44:30.440Z,11.20
2024-02-03T12:46:57.558Z,11.20
2024-02-03T12:49:24.858Z,11.20
2024-02-03T12:51:53.030Z,11.20
2024-02-03T12:54:20.016Z,11.20
2024-02-03T12:56:46.957Z,11.20
2024-02-03T12:59:14.648Z,11.20
2024-02-03T13:01:41.822Z,11.30
2024-02-03T13:04:08.889Z,11.40
2024-02-03T13:06:38.379Z,11.50
2024-02-03T13:09:08.561Z,11.60
2024-02-03T13:11:37.575Z,11.70
2024-02-03T13:14:04.523Z,11.80
2024-02-03T13:16:34.168Z,11.80
2024-02-03T13:19:01.218Z,11.90
2024-02-03T13:21:28.157Z,11.90
2024-02-03T13:23:57.331Z,11.90
2024-02-03T13:26:24.478Z,11.90
2024-02-03T13:28:53.993Z,12.00
2024-02-03T13:31:24.929Z,11.90
2024-02-03T13:33:54.357Z,11.90
2024-02-03T13:36:24.101Z,11.90
2024-02-03T13:38:53.539Z,12.00
2024-02-03T13:41:20.517Z,12.20
2024-02-03T13:43:50.015Z,12.20
2024-02-03T13:46:17.467Z,12.20
2024-02-03T13:48:44.678Z,12.30
2024-02-03T13:51:11.673Z,12.30
2024-02-03T13:53:38.805Z,12.30
2024-02-03T13:56:06.194Z,12.20
2024-02-03T13:58:34.274Z,12.20
2024-02-03T14:01:01.640Z,12.30
2024-02-03T14:03:28.764Z,12.30
2024-02-03T14:05:55.785Z,12.40
2024-02-03T14:08:23.065Z,12.40
2024-02-03T14:10:49.992Z,12.40
2024-02-03T14:13:16.860Z,12.60
2024-02-03T14:15:44.316Z,12.60
2024-02-03T14:18:11.310Z,12.60
2024-02-03T14:20:40.592Z,12.70
2024-02-03T14:23:07.567Z,12.70
2024-02-03T14:25:38.086Z,12.70
2024-02-03T14:28:06.393Z,12.60
2024-02-03T14:30:35.542Z,12.50
2024-02-03T14:33:07.183Z,12.50
2024-02-03T14:35:35.003Z,12.40
2024-02-03T14:38:02.248Z,12.40
2024-02-03T14:40:31.364Z,12.30
2024-02-03T14:43:00.583Z,12.20
2024-02-03T14:45:27.581Z,12.00
2024-02-03T14:47:54.476Z,12.00
2024-02-03T14:50:21.592Z,11.90
2024-02-03T14:52:48.620Z,11.80
2024-02-03T14:55:21.580Z,11.80
2024-02-03T14:57:52.470Z,11.60
2024-02-03T15:00:19.954Z,11.50
2024-02-03T15:02:46.900Z,11.50
2024-02-03T15:05:13.878Z,11.30
2024-02-03T15:07:43.234Z,11.20
2024-02-03T15:10:10.486Z,11.10
2024-02-03T15:12:37.566Z,11.10
2024-02-03T15:15:05.423Z,11.10
2024-02-03T15:17:32.957Z,11.20
2024-02-03T15:20:00.583Z,11.20
2024-02-03T15:22:30.287Z,11.20
2024-02-03T15:24:57.416Z,11.20
2024-02-03T15:27:26.729Z,11.10
2024-02-03T15:29:56.118Z,11.10
2024-02-03T15:32:23.285Z,11.00
2024-02-03T15:34:52.571Z,11.00
2024-02-03T15:37:19.757Z,10.90
2024-02-03T15:39:48.985Z,10.90
2024-02-03T15:42:18.886Z,10.90
2024-02-03T15:44:48.465Z,10.90
2024-02-03T15:47:15.811Z,10.80
2024-02-03T15:49:42.997Z,10.80
2024-02-03T15:52:10.221Z,10.80
2024-02-03T15:54:37.236Z,10.70
2024-02-03T15:57:04.549Z,10.60
2024-02-03T15:59:31.479Z,10.60
2024-02-03T16:02:00.903Z,10.50
2024-02-03T16:04:30.436Z,10.40
2024-02-03T16:06:57.613Z,10.40
2024-02-03T16:09:25.224Z,10.30
2024-02-03T16:11:56.505Z,10.20
2024-02-03T16:14:23.701Z,10.10
2024-02-03T16:16:55.667Z,10.10
2024-02-03T16:19:22.990Z,10.00
2024-02-03T16:21:50.284Z,9.90
2024-02-03T16:24:19.665Z,9.80
2024-02-03T16:26:46.798Z,9.80
2024-02-03T16:29:13.848Z,9.70
2024-02-03T16:31:42.869Z,9.60
2024-02-03T16:34:10.385Z,9.50
2024-02-03T16:36:37.567Z,9.40
2024-02-03T16:39:07.835Z,9.30
2024-02-03T16:41:37.336Z,9.20
2024-02-03T16:44:04.430Z,9.10
2024-02-03T16:46:31.423Z,9.00
2024-02-03T16:49:01.347Z,8.90
2024-02-03T16:51:30.226Z,8.90
2024-02-03T16:53:57.376Z,8.80
2024-02-03T16:56:24.330Z,8.80
2024-02-03T16:58:51.288Z,8.70
2024-02-03T17:01:18.427Z,8.60
2024-02-03T17:03:48.673Z,8.60
2024-02-03T17:06:15.981Z,8.60
2024-02-03T17:08:44.058Z,8.50
2024-02-03T17:11:11.033Z,8.50
2024-02-03T17:13:40.257Z,8.50
2024-02-03T17:16:07.528Z,8.50
2024-02-03T17:18:36.971Z,8.60
2024-02-03T17:21:11.114Z,8.60
2024-02-03T17:23:38.130Z,8.60
2024-02-03T17:26:06.348Z,8.60
2024-02-03T17:28:33.367Z,8.60
2024-02-03T17:31:02.748Z,8.60
2024-02-03T17:33:29.868Z,8.60
2024-02-03T17:35:56.864Z,8.60
2024-02-03T17:38:26.240Z,8.60
2024-02-03T17:40:53.813Z,8.60
2024-02-03T17:43:20.816Z,8.60
2024-02-03T17:45:47.903Z,8.60
2024-02-03T17:48:15.137Z,8.50
2024-02-03T17:50:46.777Z,8.50
2024-02-03T17:53:18.441Z,8.50
2024-02-03T17:55:45.404Z,8.50
2024-02-03T17:58:14.898Z,8.50
2024-02-03T18:00:44.738Z,8.50
2024-02-03T18:03:14.175Z,8.50
2024-02-03T18:05:43.220Z,8.50
2024-02-03T18:08:11.886Z,8.60
2024-02-03T18:10:38.971Z,8.60
2024-02-03T18:13:10.833Z,8.60
2024-02-03T18:15:37.864Z,8.70
2024-02-03T18:18:08.533Z,8.70
2024-02-03T18:20:35.482Z,8.70
2024-02-03T18:23:02.405Z,8.80
2024-02-03T18:25:31.674Z,8.80
2024-02-03T18:28:01.224Z,8.80
2024-02-03T18:30:29.429Z,8.80
2024-02-03T18:33:01.122Z,8.80
2024-02-03T18:35:28.131Z,8.80
2024-02-03T18:37:54.979Z,8.80
2024-02-03T18:40:22.270Z,8.70
2024-02-03T18:42:49.338Z,8.80
2024-02-03T18:45:16.577Z,8.80
2024-02-03T18:47:43.655Z,8.80
2024-02-03T18:50:10.660Z,8.80
2024-02-03T18:52:40.013Z,8.80
2024-02-03T18:55:07.651Z,8.80
2024-02-03T18:57:37.239Z,8.80
2024-02-03T19:00:06.023Z,8.80
2024-02-03T19:02:33.066Z,8.80
2024-02-03T19:05:02.502Z,8.80
2024-02-03T19:07:29.512Z,8.80
2024-02-03T19:09:58.729Z,8.80
2024-02-03T19:12:31.163Z,8.80
2024-02-03T19:15:00.465Z,8.80
2024-02-03T19:17:27.497Z,8.80
2024-02-03T19:19:54.607Z,8.80
2024-02-03T19:22:21.882Z,8.80
2024-02-03T19:24:53.593Z,8.80
2024-02-03T19:27:20.573Z,8.80
2024-02-03T19:29:52.049Z,8.80
2024-02-03T19:32:19.029Z,8.80
2024-02-03T19:34:48.592Z,8.90
2024-02-03T19:37:18.022Z,8.80
2024-02-03T19:39:47.266Z,8.80
2024-02-03T19:42:14.195Z,8.80
2024-02-03T19:44:41.366Z,8.80
2024-02-03T19:47:08.390Z,8.80
2024-02-03T19:49:35.791Z,8.80
2024-02-03T19:52:05.666Z,8.80
2024-02-03T19:54:35.075Z,8.80
2024-02-03T19:57:02.065Z,8.80
2024-02-03T19:59:34.018Z,8.80
2024-02-03T20:02:01.232Z,8.80
2024-02-03T20:04:28.313Z,8.80
2024-02-03T20:07:02.656Z,8.80
2024-02-03T20:09:32.372Z,8.80
2024-02-03T20:11:59.237Z,8.80
2024-02-03T20:14:29.354Z,8.80
2024-02-03T20:16:59.529Z,8.80
2024-02-03T20:19:27.866Z,8.80
2024-02-03T20:21:56.400Z,8.80
2024-02-03T20:24:27.417Z,8.80
2024-02-03T20:26:54.923Z,8.80
2024-02-03T20:29:21.753Z,8.80
2024-02-03T20:31:48.758Z,8.70
2024-02-03T20:34:18.426Z,8.70
2024-02-03T20:36:47.445Z,8.70
2024-02-03T20:39:15.408Z,8.70
2024-02-03T20:41:47.024Z,8.80
2024-02-03T20:44:14.524Z,8.70
2024-02-03T20:46:44.238Z,8.70
2024-02-03T20:49:13.817Z,8.70
2024-02-03T20:51:43.228Z,8.70
2024-02-03T20:54:10.228Z,8.70
2024-02-03T20:56:39.188Z,8.70
2024-02-03T20:59:08.376Z,8.70
2024-02-03T21:01:35.450Z,8.70
2024-02-03T21:04:07.110Z,8.70
2024-02-03T21:06:37.428Z,8.70
2024-02-03T21:09:10.015Z,8.70
2024-02-03T21:11:41.313Z,8.70
2024-02-03T21:14:08.878Z,8.70
2024-02-03T21:16:36.784Z,8.70
2024-02-03T21:19:04.810Z,8.70
2024-02-03T21:21:35.422Z,8.70
2024-02-03T21:24:02.511Z,8.70
2024-02-03T21:26:29.459Z,8.70
2024-02-03T21:29:00.758Z,8.70
2024-02-03T21:31:30.059Z,8.60
2024-02-03T21:33:59.551Z,8.60
2024-02-03T21:36:26.723Z,8.60
2024-02-03T21:38:56.065Z,8.70
2024-02-03T21:41:23.153Z,8.60
2024-02-03T21:43:58.376Z,8.60
2024-02-03T21:46:26.158Z,8.60
2024-02-03T21:48:53.789Z,8.60
2024-02-03T21:51:20.920Z,8.60
2024-02-03T21:53:48.365Z,8.60
2024-02-03T21:56:17.815Z,8.60
2024-02-03T21:58:49.972Z,8.50
2024-02-03T22:01:19.735Z,8.50
2024-02-03T22:03:46.793Z,8.60
2024-02-03T22:06:13.787Z,8.60
2024-02-03T22:08:40.792Z,8.50
2024-02-03T22:11:12.311Z,8.60
2024-02-03T22:13:41.554Z,8.50
2024-02-03T22:16:08.495Z,8.60
2024-02-03T22:18:35.583Z,8.60
2024-02-03T22:21:07.361Z,8.50
2024-02-03T22:23:34.209Z,8.50
2024-02-03T22:26:04.839Z,8.50
2024-02-03T22:28:32.120Z,8.50
2024-02-03T22:31:03.942Z,8.50
2024-02-03T22:33:34.376Z,8.50
2024-02-03T22:36:07.964Z,8.50
2024-02-03T22:38:34.909Z,8.60
2024-02-03T22:41:02.573Z,8.50
2024-02-03T22:43:29.541Z,8.50
2024-02-03T22:45:56.562Z,8.60
2024-02-03T22:48:23.821Z,8.60
2024-02-03T22:50:50.791Z,8.60
2024-02-03T22:53:22.139Z,8.60
2024-02-03T22:55:49.216Z,8.50
2024-02-03T22:58:18.640Z,8.50
2024-02-03T23:00:45.730Z,8.60
2024-02-03T23:03:15.917Z,8.50
2024-02-03T23:05:43.010Z,8.50
2024-02-03T23:08:12.439Z,8.50
2024-02-03T23:10:41.847Z,8.50
2024-02-03T23:13:08.830Z,8.50
2024-02-03T23:15:35.815Z,8.50
2024-02-03T23:18:02.880Z,8.50
2024-02-03T23:20:29.899Z,8.50
2024-02-03T23:22:56.886Z,8.50
2024-02-03T23:25:26.530Z,8.50
2024-02-03T23:27:55.886Z,8.50
2024-02-03T23:30:23.458Z,8.60
2024-02-03T23:32:52.522Z,8.50
2024-02-03T23:35:21.578Z,8.60
2024-02-03T23:37:50.995Z,8.60
2024-02-03T23:40:17.783Z,8.60
2024-02-03T23:42:44.870Z,8.60
2024-02-03T23:45:14.218Z,8.60
2024-02-03T23:47:41.964Z,8.50
2024-02-03T23:50:09.036Z,8.50
2024-02-03T23:52:36.060Z,8.50
2024-02-03T23:55:03.670Z,8.50
2024-02-03T23:57:32.875Z,8.60
